createdAt,value
2019-05-22T00:02:21.433Z,6.37
2019-05-22T00:05:02.045Z,9.03
2019-05-22T00:07:33.423Z,5.20
2019-05-22T00:10:07.052Z,6.03
2019-05-22T00:12:46.865Z,6.62
2019-05-22T00:15:16.823Z,4.00
2019-05-22T00:17:49.908Z,5.62
2019-05-22T00:20:24.886Z,7.03
2019-05-22T00:22:57.939Z,6.17
2019-05-22T00:25:33.314Z,6.45
2019-05-22T00:28:06.272Z,7.20
2019-05-22T00:30:39.438Z,7.72
2019-05-22T00:33:12.125Z,5.58
2019-05-22T00:35:45.462Z,6.20
2019-05-22T00:38:18.610Z,6.08
2019-05-22T00:40:57.436Z,5.15
2019-05-22T00:43:31.342Z,4.33
2019-05-22T00:46:05.168Z,5.25
2019-05-22T00:48:38.746Z,3.92
2019-05-22T00:51:28.839Z,3.92
2019-05-22T00:54:39.402Z,3.22
2019-05-22T00:57:29.741Z,2.85
2019-05-22T01:00:21.651Z,3.65
2019-05-22T01:02:56.380Z,3.35
2019-05-22T01:05:29.576Z,3.85
2019-05-22T01:08:02.992Z,1.98
2019-05-22T01:10:34.360Z,3.27
2019-05-22T01:13:07.263Z,2.55
2019-05-22T01:15:40.265Z,2.30
2019-05-22T01:18:14.709Z,0.90
2019-05-22T01:20:49.964Z,1.52
2019-05-22T01:23:23.886Z,2.25
2019-05-22T01:25:55.688Z,1.27
2019-05-22T01:28:27.945Z,1.80
2019-05-22T01:31:05.883Z,1.87
2019-05-22T01:33:54.811Z,2.70
2019-05-22T01:36:33.115Z,2.50
2019-05-22T01:39:49.991Z,4.22
2019-05-22T01:42:27.429Z,1.72
2019-05-22T01:45:06.226Z,5.08
2019-05-22T01:48:06.272Z,2.27
2019-05-22T01:50:58.318Z,3.77
2019-05-22T01:53:36.170Z,4.10
2019-05-22T01:56:11.644Z,2.35
2019-05-22T01:58:46.048Z,7.78
2019-05-22T02:01:19.403Z,2.92
2019-05-22T02:03:54.546Z,2.62
2019-05-22T02:06:27.192Z,3.72
2019-05-22T02:09:16.855Z,2.83
2019-05-22T02:11:52.394Z,3.60
2019-05-22T02:14:25.588Z,3.30
2019-05-22T02:16:58.614Z,1.50
2019-05-22T02:19:31.529Z,1.80
2019-05-22T02:22:04.755Z,2.77
2019-05-22T02:24:37.402Z,3.22
2019-05-22T02:27:10.308Z,2.60
2019-05-22T02:29:42.913Z,3.47
2019-05-22T02:32:14.810Z,2.33
2019-05-22T02:34:48.147Z,2.90
2019-05-22T02:37:19.801Z,1.80
2019-05-22T02:39:52.068Z,4.15
2019-05-22T02:42:30.947Z,3.30
2019-05-22T02:45:05.256Z,4.05
2019-05-22T02:47:38.624Z,2.60
2019-05-22T02:50:10.832Z,3.08
2019-05-22T02:52:45.545Z,1.40
2019-05-22T02:55:17.429Z,2.52
2019-05-22T02:57:50.286Z,2.95
2019-05-22T03:00:24.306Z,4.28
2019-05-22T03:02:57.513Z,3.27
2019-05-22T03:05:28.752Z,4.45
2019-05-22T03:08:01.562Z,4.10
2019-05-22T03:10:33.089Z,2.70
2019-05-22T03:13:04.270Z,5.20
2019-05-22T03:15:38.478Z,4.65
2019-05-22T03:18:10.515Z,7.03
2019-05-22T03:20:41.764Z,5.45
2019-05-22T03:23:36.767Z,9.95
2019-05-22T03:26:13.519Z,11.15
2019-05-22T03:28:46.188Z,12.25
2019-05-22T03:31:18.637Z,13.85
2019-05-22T03:33:50.849Z,14.75
2019-05-22T03:36:22.345Z,16.90
2019-05-22T03:38:55.489Z,17.40
2019-05-22T03:41:27.932Z,10.03
2019-05-22T03:44:01.304Z,22.13
2019-05-22T03:46:38.254Z,10.38
2019-05-22T03:49:29.069Z,13.98
2019-05-22T03:51:49.418Z,20.97
2019-05-22T03:54:21.942Z,16.07
2019-05-22T03:56:54.925Z,18.62
2019-05-22T03:59:26.160Z,16.17
2019-05-22T04:01:58.153Z,26.10
2019-05-22T04:04:39.577Z,25.30
2019-05-22T04:07:24.127Z,27.65
2019-05-22T04:09:57.641Z,13.78
2019-05-22T04:12:29.488Z,24.98
2019-05-22T04:15:00.892Z,25.20
2019-05-22T04:17:35.405Z,23.30
2019-05-22T04:20:07.961Z,27.45
2019-05-22T04:22:39.211Z,13.95
2019-05-22T04:25:12.966Z,23.75
2019-05-22T04:27:44.396Z,28.15
2019-05-22T04:30:16.425Z,20.77
2019-05-22T04:32:48.668Z,22.65
2019-05-22T04:35:21.240Z,18.40
2019-05-22T04:37:52.767Z,24.45
2019-05-22T04:40:59.859Z,26.55
2019-05-22T04:43:36.757Z,27.40
2019-05-22T04:46:10.044Z,26.60
2019-05-22T04:48:46.087Z,28.27
2019-05-22T04:51:28.581Z,25.05
2019-05-22T04:54:00.460Z,14.53
2019-05-22T04:56:31.927Z,29.63
2019-05-22T04:59:03.373Z,29.80
2019-05-22T05:01:35.029Z,14.50
2019-05-22T05:04:07.980Z,29.37
2019-05-22T05:06:40.323Z,31.30
2019-05-22T05:09:14.806Z,27.93
2019-05-22T05:11:46.536Z,31.27
2019-05-22T05:14:21.321Z,23.02
2019-05-22T05:16:52.819Z,30.82
2019-05-22T05:19:25.254Z,32.05
2019-05-22T05:21:56.680Z,25.57
2019-05-22T05:24:28.497Z,29.10
2019-05-22T05:27:02.049Z,22.27
2019-05-22T05:29:36.924Z,28.52
2019-05-22T05:32:08.334Z,26.20
2019-05-22T05:34:57.710Z,26.02
2019-05-22T05:37:29.724Z,25.88
2019-05-22T05:40:34.041Z,11.93
2019-05-22T05:43:06.544Z,23.38
2019-05-22T05:45:40.323Z,26.75
2019-05-22T05:48:16.622Z,26.57
2019-05-22T05:51:38.581Z,21.42
2019-05-22T05:54:18.124Z,20.25
2019-05-22T05:56:51.143Z,12.30
2019-05-22T05:59:26.611Z,16.17
2019-05-22T06:02:00.246Z,23.22
2019-05-22T06:04:41.270Z,18.57
2019-05-22T06:07:21.614Z,15.55
2019-05-22T06:10:44.304Z,19.57
2019-05-22T06:13:15.821Z,16.40
2019-05-22T06:16:24.962Z,21.27
2019-05-22T06:18:57.268Z,13.08
2019-05-22T06:21:31.200Z,21.90
2019-05-22T06:24:57.577Z,15.13
2019-05-22T06:27:30.867Z,21.70
2019-05-22T06:30:03.077Z,19.75
2019-05-22T06:33:42.708Z,22.22
2019-05-22T06:36:17.164Z,22.35
2019-05-22T06:38:52.937Z,25.92
2019-05-22T06:41:31.580Z,22.77
2019-05-22T06:44:44.392Z,24.07
2019-05-22T06:47:27.527Z,20.43
2019-05-22T06:49:59.565Z,23.12
2019-05-22T06:52:31.264Z,18.20
2019-05-22T06:55:02.818Z,21.30
2019-05-22T06:57:38.161Z,19.30
2019-05-22T07:00:21.825Z,15.68
2019-05-22T07:02:54.220Z,12.18
2019-05-22T07:05:27.517Z,21.48
2019-05-22T07:07:59.837Z,20.08
2019-05-22T07:10:33.899Z,20.68
2019-05-22T07:13:06.908Z,19.85
2019-05-22T07:15:52.535Z,18.25
2019-05-22T07:18:26.996Z,11.15
2019-05-22T07:20:58.918Z,16.57
2019-05-22T07:23:32.119Z,17.92
2019-05-22T07:26:03.517Z,21.75
2019-05-22T07:28:34.987Z,20.82
2019-05-22T07:31:07.620Z,27.42
2019-05-22T07:33:39.603Z,17.15
2019-05-22T07:36:16.472Z,22.50
2019-05-22T07:38:44.698Z,20.10
2019-05-22T07:41:16.336Z,14.53
2019-05-22T07:43:47.688Z,24.92
2019-05-22T07:46:19.474Z,21.17
2019-05-22T07:48:50.965Z,17.82
2019-05-22T07:51:23.019Z,13.62
2019-05-22T07:53:54.441Z,25.35
2019-05-22T07:56:25.684Z,12.90
2019-05-22T07:58:59.126Z,20.57
2019-05-22T08:01:31.158Z,17.40
2019-05-22T08:04:04.739Z,13.08
2019-05-22T08:06:37.197Z,11.95
2019-05-22T08:09:10.954Z,19.30
2019-05-22T08:11:43.843Z,23.27
2019-05-22T08:14:16.210Z,17.40
2019-05-22T08:16:50.471Z,11.00
2019-05-22T08:19:22.385Z,20.17
2019-05-22T08:22:06.996Z,20.85
2019-05-22T08:24:27.957Z,20.02
2019-05-22T08:26:59.978Z,11.45
2019-05-22T08:29:32.291Z,23.30
2019-05-22T08:32:05.306Z,22.42
2019-05-22T08:34:37.076Z,23.45
2019-05-22T08:37:11.610Z,25.05
2019-05-22T08:39:44.059Z,18.32
2019-05-22T08:42:18.750Z,23.15
2019-05-22T08:44:50.035Z,19.62
2019-05-22T08:47:21.798Z,11.88
2019-05-22T08:49:53.034Z,19.15
2019-05-22T08:52:27.124Z,20.90
2019-05-22T08:54:59.767Z,18.40
2019-05-22T08:57:31.507Z,19.37
2019-05-22T09:00:03.925Z,19.65
2019-05-22T09:02:37.557Z,16.70
2019-05-22T09:05:13.297Z,15.40
2019-05-22T09:07:46.312Z,16.30
2019-05-22T09:10:17.925Z,13.55
2019-05-22T09:12:49.486Z,18.05
2019-05-22T09:15:20.825Z,17.70
2019-05-22T09:17:52.471Z,15.98
2019-05-22T09:20:24.666Z,14.03
2019-05-22T09:22:56.240Z,14.80
2019-05-22T09:25:27.741Z,16.50
2019-05-22T09:28:01.765Z,12.10
2019-05-22T09:30:33.702Z,20.77
2019-05-22T09:33:06.597Z,13.65
2019-05-22T09:35:38.231Z,15.40
2019-05-22T09:38:09.522Z,16.95
2019-05-22T09:40:40.788Z,8.65
2019-05-22T09:43:14.561Z,21.20
2019-05-22T09:45:45.833Z,21.77
2019-05-22T09:48:17.636Z,18.02
2019-05-22T09:50:49.620Z,15.72
2019-05-22T09:53:21.747Z,16.40
2019-05-22T09:55:53.208Z,12.70
2019-05-22T09:58:25.298Z,17.37
2019-05-22T10:00:56.735Z,11.60
2019-05-22T10:03:28.087Z,14.35
2019-05-22T10:05:59.746Z,15.28
2019-05-22T10:08:32.227Z,17.23
2019-05-22T10:11:06.320Z,12.95
2019-05-22T10:13:39.453Z,15.85
2019-05-22T10:16:11.251Z,17.73
2019-05-22T10:18:42.656Z,14.10
2019-05-22T10:21:14.381Z,12.85
2019-05-22T10:23:45.868Z,14.03
2019-05-22T10:26:17.283Z,15.60
2019-05-22T10:30:57.885Z,15.80
2019-05-22T10:33:30.380Z,13.58
2019-05-22T10:36:01.797Z,9.33
2019-05-22T10:38:33.071Z,13.15
2019-05-22T10:41:04.678Z,7.45
2019-05-22T10:43:40.425Z,11.05
2019-05-22T10:46:11.898Z,11.83
2019-05-22T10:48:44.444Z,9.83
2019-05-22T10:51:16.607Z,9.08
2019-05-22T10:53:48.779Z,8.63
2019-05-22T10:56:20.137Z,12.25
2019-05-22T10:58:51.711Z,11.20
2019-05-22T11:01:24.142Z,10.15
2019-05-22T11:03:57.259Z,7.72
2019-05-22T11:06:28.935Z,10.63
2019-05-22T11:09:01.599Z,7.80
2019-05-22T11:11:34.702Z,6.87
2019-05-22T11:14:49.985Z,11.35
2019-05-22T11:17:21.363Z,11.00
2019-05-22T11:19:52.957Z,10.23
2019-05-22T11:22:25.146Z,9.58
2019-05-22T11:24:56.501Z,9.60
2019-05-22T11:27:30.823Z,9.98
2019-05-22T11:30:02.201Z,10.90
2019-05-22T11:32:35.617Z,7.12
2019-05-22T11:35:08.889Z,9.88
2019-05-22T11:37:41.362Z,6.08
2019-05-22T11:40:15.127Z,7.58
2019-05-22T11:42:48.047Z,10.78
2019-05-22T11:45:22.405Z,10.28
2019-05-22T11:47:54.053Z,9.85
2019-05-22T11:50:28.136Z,9.05
2019-05-22T11:55:50.766Z,9.10
2019-05-22T11:58:22.056Z,7.60
2019-05-22T12:00:54.874Z,10.18
2019-05-22T12:03:27.351Z,11.73
2019-05-22T12:05:59.526Z,9.30
2019-05-22T12:08:31.961Z,12.13
2019-05-22T12:11:03.900Z,8.35
2019-05-22T12:13:36.392Z,5.78
2019-05-22T12:16:07.967Z,8.15
2019-05-22T12:18:39.241Z,7.70
2019-05-22T12:21:11.015Z,4.35
2019-05-22T12:23:42.641Z,11.95
2019-05-22T12:26:14.177Z,7.97
2019-05-22T12:28:45.925Z,11.28
2019-05-22T12:31:17.241Z,8.88
2019-05-22T12:33:49.075Z,6.95
2019-05-22T12:36:20.762Z,10.38
2019-05-22T12:38:52.360Z,7.10
2019-05-22T12:41:24.141Z,6.33
2019-05-22T12:43:59.614Z,5.17
2019-05-22T12:46:32.752Z,8.88
2019-05-22T12:49:08.554Z,10.55
2019-05-22T12:51:39.527Z,8.70
2019-05-22T12:54:11.867Z,5.90
2019-05-22T12:56:45.255Z,3.85
2019-05-22T12:59:17.204Z,7.20
2019-05-22T13:01:49.695Z,8.70
2019-05-22T13:04:23.436Z,10.35
2019-05-22T13:06:55.299Z,7.97
2019-05-22T13:09:26.796Z,8.10
2019-05-22T13:11:59.465Z,4.42
2019-05-22T13:14:31.468Z,6.83
2019-05-22T13:17:03.556Z,6.62
2019-05-22T13:19:35.174Z,12.63
2019-05-22T13:22:11.587Z,4.75
2019-05-22T13:24:44.635Z,6.53
2019-05-22T13:27:18.357Z,5.53
2019-05-22T13:29:52.176Z,6.80
2019-05-22T13:32:24.180Z,4.58
2019-05-22T13:34:57.003Z,6.60
2019-05-22T13:37:28.255Z,8.53
2019-05-22T13:39:59.897Z,6.35
2019-05-22T13:42:31.492Z,8.65
2019-05-22T13:45:03.036Z,6.03
2019-05-22T13:47:53.149Z,4.42
2019-05-22T13:50:28.545Z,5.70
2019-05-22T13:53:00.857Z,6.97
2019-05-22T13:55:33.342Z,11.10
2019-05-22T13:58:06.553Z,8.20
2019-05-22T14:00:39.278Z,10.25
2019-05-22T14:03:11.501Z,5.87
2019-05-22T14:05:43.338Z,8.78
2019-05-22T14:08:15.897Z,5.37
2019-05-22T14:10:49.920Z,8.08
2019-05-22T14:13:22.123Z,9.45
2019-05-22T14:15:57.003Z,8.15
2019-05-22T14:18:26.723Z,6.50
2019-05-22T14:21:00.432Z,6.12
2019-05-22T14:23:31.939Z,6.00
2019-05-22T14:26:03.144Z,8.58
2019-05-22T14:28:35.284Z,6.17
2019-05-22T14:31:07.010Z,7.37
2019-05-22T14:33:40.554Z,5.03
2019-05-22T14:36:12.730Z,4.55
2019-05-22T14:38:45.374Z,4.30
2019-05-22T14:41:17.829Z,5.37
2019-05-22T14:43:49.133Z,7.62
2019-05-22T14:46:21.268Z,5.97
2019-05-22T14:48:54.977Z,5.35
2019-05-22T14:51:27.716Z,3.83
2019-05-22T14:53:59.383Z,6.05
2019-05-22T14:56:32.039Z,4.47
2019-05-22T14:59:03.887Z,3.15
2019-05-22T15:01:35.627Z,3.55
2019-05-22T15:04:07.630Z,4.47
2019-05-22T15:06:39.714Z,3.83
2019-05-22T15:09:11.472Z,2.10
2019-05-22T15:11:42.791Z,7.28
2019-05-22T15:14:14.069Z,5.65
2019-05-22T15:16:45.474Z,5.00
2019-05-22T15:19:17.001Z,5.92
2019-05-22T15:21:48.663Z,5.60
2019-05-22T15:24:20.419Z,4.37
2019-05-22T15:26:52.481Z,3.72
2019-05-22T15:29:25.695Z,4.80
2019-05-22T15:31:57.507Z,5.17
2019-05-22T15:34:30.581Z,6.92
2019-05-22T15:37:02.880Z,7.10
2019-05-22T15:39:36.138Z,1.55
2019-05-22T15:42:09.306Z,5.45
2019-05-22T15:44:41.499Z,8.53
2019-05-22T15:47:13.080Z,4.80
2019-05-22T15:49:46.208Z,3.83
2019-05-22T15:52:18.059Z,9.55
2019-05-22T15:54:49.714Z,5.03
2019-05-22T15:57:22.264Z,3.65
2019-05-22T15:59:54.757Z,4.50
2019-05-22T16:02:26.490Z,4.72
2019-05-22T16:04:59.616Z,7.15
2019-05-22T16:07:40.695Z,6.78
2019-05-22T16:10:14.804Z,6.25
2019-05-22T16:12:49.658Z,3.35
2019-05-22T16:15:23.011Z,4.50
2019-05-22T16:18:10.933Z,5.60
2019-05-22T16:20:33.782Z,5.60
2019-05-22T16:23:06.851Z,5.35
2019-05-22T16:25:40.334Z,4.60
2019-05-22T16:28:13.153Z,6.72
2019-05-22T16:30:45.235Z,4.95
2019-05-22T16:33:17.286Z,2.15
2019-05-22T16:35:49.657Z,2.77
2019-05-22T16:38:22.519Z,5.03
2019-05-22T16:40:54.667Z,3.95
2019-05-22T16:43:47.367Z,7.05
2019-05-22T16:46:01.672Z,4.10
2019-05-22T16:48:34.011Z,5.70
2019-05-22T16:51:07.199Z,6.17
2019-05-22T16:53:38.730Z,4.50
2019-05-22T16:56:13.145Z,3.90
2019-05-22T16:58:44.810Z,5.95
2019-05-22T17:01:19.016Z,5.58
2019-05-22T17:03:55.065Z,3.55
2019-05-22T17:06:26.940Z,5.55
2019-05-22T17:09:04.202Z,5.15
2019-05-22T17:11:37.321Z,3.80
2019-05-22T17:14:12.714Z,8.38
2019-05-22T17:16:46.924Z,4.92
2019-05-22T17:19:27.147Z,3.02
2019-05-22T17:21:52.964Z,3.83
2019-05-22T17:24:25.091Z,8.25
2019-05-22T17:26:57.491Z,5.60
2019-05-22T17:33:01.923Z,3.77
2019-05-22T17:35:47.913Z,8.13
2019-05-22T17:38:30.321Z,3.70
2019-05-22T17:41:44.436Z,4.03
2019-05-22T17:44:42.120Z,9.70
2019-05-22T17:47:39.442Z,7.12
2019-05-22T17:50:37.389Z,3.42
2019-05-22T17:53:37.727Z,4.87
2019-05-22T17:56:31.022Z,4.28
2019-05-22T17:59:10.286Z,2.52
2019-05-22T18:02:13.414Z,6.42
2019-05-22T18:05:07.877Z,4.80
2019-05-22T18:08:04.223Z,3.15
2019-05-22T18:11:15.017Z,3.22
2019-05-22T18:14:44.887Z,4.67
2019-05-22T18:18:11.740Z,7.22
2019-05-22T18:28:34.075Z,4.78
2019-05-22T18:31:16.534Z,7.30
2019-05-22T18:34:23.989Z,6.67
2019-05-22T18:37:13.646Z,2.60
2019-05-22T18:39:55.032Z,5.08
2019-05-22T18:43:44.868Z,6.58
2019-05-22T18:46:24.078Z,5.33
2019-05-22T18:49:27.712Z,4.67
2019-05-22T18:52:08.711Z,4.75
2019-05-22T18:54:40.849Z,4.85
2019-05-22T18:57:21.249Z,3.00
2019-05-22T18:59:59.992Z,3.85
2019-05-22T19:02:27.363Z,6.42
2019-05-22T19:05:13.161Z,4.95
2019-05-22T19:07:48.451Z,3.47
2019-05-22T19:10:29.673Z,2.72
2019-05-22T19:13:04.810Z,5.65
2019-05-22T19:15:36.232Z,3.37
2019-05-22T19:18:10.903Z,5.70
2019-05-22T19:20:47.569Z,4.83
2019-05-22T19:23:25.910Z,6.30
2019-05-22T19:25:57.276Z,7.47
2019-05-22T19:28:43.412Z,3.45
2019-05-22T19:31:06.948Z,4.20
2019-05-22T19:33:38.901Z,3.47
2019-05-22T19:36:12.336Z,4.92
2019-05-22T19:38:46.207Z,3.85
2019-05-22T19:44:31.063Z,3.98
2019-05-22T19:47:05.588Z,2.08
2019-05-22T19:49:43.626Z,2.05
2019-05-22T19:52:14.422Z,5.10
2019-05-22T19:57:42.541Z,3.83
2019-05-22T20:00:37.830Z,4.35
2019-05-22T20:03:24.571Z,4.65
2019-05-22T20:06:27.264Z,2.80
2019-05-22T20:09:12.247Z,6.58
2019-05-22T20:11:56.896Z,3.65
2019-05-22T20:14:50.504Z,4.65
2019-05-22T20:22:08.344Z,8.95
2019-05-22T20:24:55.740Z,3.90
2019-05-22T20:28:22.917Z,6.28
2019-05-22T20:31:54.682Z,4.12
2019-05-22T20:52:10.200Z,2.00
2019-05-22T20:55:33.116Z,2.92
2019-05-22T20:58:46.154Z,5.05
2019-05-22T21:06:34.748Z,3.12
2019-05-22T21:10:13.967Z,3.12
2019-05-22T21:13:37.047Z,4.37
2019-05-22T21:16:16.748Z,3.35
2019-05-22T21:18:55.462Z,6.28
2019-05-22T21:21:34.298Z,4.65
2019-05-22T21:24:11.189Z,4.20
2019-05-22T21:26:41.492Z,4.70
2019-05-22T21:29:13.483Z,5.62
2019-05-22T21:31:47.929Z,5.47
2019-05-22T21:34:19.071Z,3.42
2019-05-22T21:36:50.911Z,7.62
2019-05-22T21:39:23.588Z,4.05
2019-05-22T21:41:54.887Z,6.92
2019-05-22T21:44:26.664Z,3.58
2019-05-22T21:46:58.493Z,4.20
2019-05-22T21:49:30.648Z,3.83
2019-05-22T21:52:03.302Z,3.87
2019-05-22T21:54:34.688Z,3.95
2019-05-22T21:57:07.946Z,3.45
2019-05-22T21:59:39.427Z,5.12
2019-05-22T22:02:16.746Z,4.62
2019-05-22T22:04:49.148Z,5.17
2019-05-22T22:07:21.350Z,3.60
2019-05-22T22:09:53.783Z,3.72
2019-05-22T22:12:25.016Z,5.03
2019-05-22T22:14:59.751Z,4.83
2019-05-22T22:17:31.218Z,4.47
2019-05-22T22:20:04.292Z,4.90
2019-05-22T22:22:36.791Z,5.53
2019-05-22T22:25:10.290Z,4.62
2019-05-22T22:27:41.902Z,5.20
2019-05-22T22:30:23.751Z,6.25
2019-05-22T22:32:58.997Z,4.50
2019-05-22T22:35:30.541Z,3.85
2019-05-22T22:38:04.591Z,3.65
2019-05-22T22:40:37.952Z,4.08
2019-05-22T22:43:10.545Z,7.03
2019-05-22T22:48:06.499Z,4.62
2019-05-22T22:50:40.401Z,6.08
2019-05-22T22:53:14.857Z,4.65
2019-05-22T22:55:47.912Z,4.70
2019-05-22T22:58:19.801Z,5.70
2019-05-22T23:00:53.990Z,5.03
2019-05-22T23:03:31.328Z,3.90
2019-05-22T23:06:09.514Z,4.05
2019-05-22T23:08:41.580Z,6.08
2019-05-22T23:11:13.929Z,6.65
2019-05-22T23:13:46.103Z,3.60
2019-05-22T23:16:19.757Z,3.58
2019-05-22T23:19:50.675Z,3.75
2019-05-22T23:22:24.442Z,5.08
2019-05-22T23:24:58.020Z,3.70
2019-05-22T23:27:32.009Z,9.30
2019-05-22T23:30:04.980Z,4.53
2019-05-22T23:32:37.446Z,4.60
2019-05-22T23:35:08.964Z,4.83
2019-05-22T23:37:41.744Z,4.22
2019-05-22T23:40:16.065Z,3.80
2019-05-22T23:42:48.652Z,7.05
2019-05-22T23:45:22.409Z,6.90
2019-05-22T23:48:05.866Z,6.45
2019-05-22T23:50:38.270Z,4.87
2019-05-22T23:53:13.050Z,4.97
2019-05-22T23:55:47.127Z,4.28
2019-05-22T23:58:20.234Z,6.67
